Flight Track Log - Related Links

Times and Time Zones

All times are in EDT time to prevent confusion due to time zone crossing. See the SKW2959 flight status page for this flight to view local times or setup timezone preferences in your user account.


Time Position Orientation Groundspeed Altitude Reporting Facility
EDT Latitude Longitude Course Direction KTS MPH feet Rate Location/Type
Mon 08:26:50 AM 31.8225 -106.3728 353° North 164 189 4,500  Level Albuquerque Center
Mon 08:27:38 AM 31.8617 -106.3781 353° North 202 232 5,500 1,677 Climbing Albuquerque Center
Mon 08:28:23 AM 31.9036 -106.3914 345° North 227 261 7,100 2,361 Climbing Albuquerque Center
Mon 08:28:39 AM 31.9242 -106.4050 331° Northwest 260 299 7,900 2,361 Climbing Albuquerque Center
Mon 08:29:24 AM 31.9406 -106.4575 290° West 259 298 9,500 2,300 Climbing Albuquerque Center
Mon 08:29:39 AM 31.9447 -106.4950 277° West 288 331 10,200 1,800 Climbing Albuquerque Center
Mon 08:30:24 AM 31.9539 -106.5542 280° West 298 343 11,300 1,528 Climbing Albuquerque Center
Mon 08:31:25 AM 31.9686 -106.6644 279° West 339 390 12,900 1,785 Climbing Albuquerque Center
Mon 08:32:25 AM 31.9836 -106.7806 279° West 357 411 14,900 1,884 Climbing Albuquerque Center
Mon 08:33:26 AM 31.9981 -106.8989 278° West 363 418 16,700 1,537 Climbing Albuquerque Center
Mon 08:34:26 AM 32.0136 -107.0225 278° West 375 432 18,000 1,388 Climbing Albuquerque Center
Mon 08:35:27 AM 32.0283 -107.1500 278° West 385 443 19,500 1,388 Climbing Albuquerque Center
Mon 08:36:27 AM 32.0447 -107.2786 279° West 393 452 20,800 1,339 Climbing Albuquerque Center
Mon 08:37:28 AM 32.0597 -107.4131 278° West 405 466 22,200 1,140 Climbing Albuquerque Center
Mon 08:38:28 AM 32.0756 -107.5475 278° West 411 473 23,100 992 Climbing Albuquerque Center
Mon 08:39:29 AM 32.0919 -107.6869 278° West 422 486 24,200 942 Climbing Albuquerque Center
Mon 08:40:29 AM 32.1094 -107.8286 278° West 431 496 25,000 793 Climbing Albuquerque Center
Mon 08:41:30 AM 32.1264 -107.9736 278° West 441 507 25,800 496 Climbing Albuquerque Center
Mon 08:42:30 AM 32.1433 -108.1292 277° West 455 524 26,000 99 Climbing Albuquerque Center
Mon 08:43:31 AM 32.1611 -108.2844 278° West 474 545 26,000  Level Albuquerque Center
Mon 08:44:31 AM 32.1797 -108.4400 278° West 488 562 26,000  Level Albuquerque Center
Mon 08:45:32 AM 32.1969 -108.6050 277° West 494 568 26,000  Level Albuquerque Center
Mon 08:46:32 AM 32.2150 -108.7653 278° West 495 570 26,000  Level Albuquerque Center
Mon 08:47:33 AM 32.2325 -108.9269 277° West 497 572 26,000  Level Albuquerque Center
Mon 08:48:33 AM 32.2494 -109.0881 277° West 496 571 26,000  Level Albuquerque Center
Mon 08:49:34 AM 32.2669 -109.2489 277° West 496 571 26,000  Level Albuquerque Center
Mon 08:50:34 AM 32.3108 -109.4367 286° West 497 572 26,000 -149 Level Albuquerque Center
Mon 08:51:35 AM 32.3492 -109.5906 286° West 493 567 25,700 -397 Descending Albuquerque Center
Mon 08:52:35 AM 32.3861 -109.7472 286° West 494 568 25,200 -496 Descending Albuquerque Center
Mon 08:53:36 AM 32.4247 -109.9072 286° West 501 577 24,700 -496 Descending Albuquerque Center
Mon 08:54:36 AM 32.4639 -110.0672 286° West 507 583 24,200 -347 Descending Albuquerque Center
Mon 08:55:37 AM 32.5011 -110.2267 286° West 507 583 24,000 -98 Descending Albuquerque Center
Mon 08:56:38 AM 32.5358 -110.3731 286° West 498 573 24,000  Level Albuquerque Center
Mon 08:57:38 AM 32.5719 -110.5242 286° West 485 558 24,000 -99 Level Albuquerque Center
Mon 08:58:39 AM 32.6228 -110.6500 296° West 442 509 23,800 -1,041 Descending Albuquerque Center
Mon 08:59:39 AM 32.6856 -110.7722 301° West 431 496 21,900 -1,884 Descending Albuquerque Center
Mon 09:00:40 AM 32.7472 -110.8842 303° West 414 476 20,000 -1,884 Descending Albuquerque Center
Mon 09:01:40 AM 32.8050 -110.9914 303° West 393 452 18,100 -1,835 Descending Albuquerque Center
Mon 09:02:41 AM 32.8589 -111.0956 302° West 377 434 16,300 -1,574 Descending Albuquerque Center
Mon 09:03:42 AM 32.9181 -111.2186 300° West 362 417 14,900 -1,339 Descending Albuquerque Center
Mon 09:04:42 AM 32.9631 -111.3183 298° West 346 398 13,600 -1,240 Descending Albuquerque Center
Mon 09:05:43 AM 33.0053 -111.4097 299° West 324 373 12,400 -1,091 Descending Albuquerque Center
Mon 09:06:43 AM 33.0522 -111.5008 302° West 322 371 11,400 -992 Descending Albuquerque Center
Mon 09:07:44 AM 33.0961 -111.5867 301° West 311 358 10,400 -689 Descending Albuquerque Center
Mon 09:08:45 AM 33.1389 -111.6708 301° West 300 345 10,000 -198 Descending Albuquerque Center
Mon 09:09:45 AM 33.1803 -111.7533 301° West 293 337 10,000 -198 Level Albuquerque Center
Mon 09:10:46 AM 33.2225 -111.8372 301° West 294 338 9,600 -492 Descending Albuquerque Center
Mon 09:11:47 AM 33.2603 -111.9103 302° West 273 314 9,000 -347 Descending Albuquerque Center
Mon 09:12:47 AM 33.2928 -111.9747 301° West 237 273 8,900 -694 Descending Albuquerque Center
Mon 09:13:48 AM 33.3258 -112.0425 300° West 233 268 7,600 -984 Descending Albuquerque Center
Mon 09:14:49 AM 33.3431 -112.1153 286° West 237 273 6,900 -984 Descending Albuquerque Center
Mon 09:15:50 AM 33.3450 -112.1939 272° West 236 272 5,600 -1,041 Descending Albuquerque Center
Mon 09:16:50 AM 33.3983 -112.2078 348° North 207 238 4,800 -1,091 Descending Albuquerque Center
Mon 09:17:51 AM 33.4303 -112.1581 52° Northeast 192 221 3,400 -1,180 Descending Albuquerque Center
Mon 09:18:52 AM 33.4428 -112.1042 74° East 179 206 2,400 -836 Descending Albuquerque Center
Mon 09:19:53 AM 33.4417 -112.0578 92° East 157 181 1,700 -645 Descending Albuquerque Center
Mon 09:20:53 AM 33.4417 -112.0094 90° East 145 167 1,100 -600 Descending Albuquerque Center

Login

Don't have an account? Register now (free) for customized features, flight alerts, and more!